createdAt,value
2023-04-22T00:01:02.779Z,99.90
2023-04-22T00:03:45.054Z,99.90
2023-04-22T00:06:19.120Z,99.90
2023-04-22T00:08:56.169Z,99.90
2023-04-22T00:11:31.750Z,99.90
2023-04-22T00:14:08.606Z,99.90
2023-04-22T00:16:51.608Z,99.90
2023-04-22T00:19:28.547Z,99.90
2023-04-22T00:22:04.064Z,99.90
2023-04-22T00:24:40.403Z,99.90
2023-04-22T00:27:17.129Z,99.90
2023-04-22T00:29:52.856Z,99.90
2023-04-22T00:32:39.562Z,99.90
2023-04-22T00:35:15.369Z,99.90
2023-04-22T00:37:55.531Z,99.90
2023-04-22T00:40:32.896Z,99.90
2023-04-22T00:43:10.158Z,99.90
2023-04-22T00:45:45.148Z,99.90
2023-04-22T00:48:23.488Z,99.90
2023-04-22T00:51:01.516Z,99.90
2023-04-22T00:53:36.047Z,99.90
2023-04-22T00:56:13.237Z,99.90
2023-04-22T00:59:01.138Z,99.90
2023-04-22T01:01:37.100Z,99.90
2023-04-22T01:04:16.582Z,99.90
2023-04-22T01:06:56.743Z,99.90
2023-04-22T01:09:31.515Z,99.90
2023-04-22T01:12:07.867Z,99.90
2023-04-22T01:14:43.490Z,99.90
2023-04-22T01:17:19.704Z,99.90
2023-04-22T01:19:58.580Z,99.90
2023-04-22T01:22:33.891Z,99.90
2023-04-22T01:25:13.262Z,99.90
2023-04-22T01:27:57.106Z,99.90
2023-04-22T01:30:33.901Z,99.90
2023-04-22T01:33:12.873Z,99.90
2023-04-22T01:35:49.805Z,99.90
2023-04-22T01:38:27.381Z,99.90
2023-04-22T01:41:08.184Z,99.90
2023-04-22T01:43:41.943Z,99.90
2023-04-22T01:46:20.141Z,99.90
2023-04-22T01:48:58.181Z,99.90
2023-04-22T01:51:34.259Z,99.90
2023-04-22T01:54:11.236Z,99.90
2023-04-22T01:56:52.730Z,99.90
2023-04-22T01:59:28.828Z,99.90
2023-04-22T02:02:09.561Z,99.90
2023-04-22T02:04:46.384Z,99.90
2023-04-22T02:07:24.693Z,99.90
2023-04-22T02:10:00.409Z,99.90
2023-04-22T02:12:38.991Z,99.90
2023-04-22T02:15:15.266Z,99.90
2023-04-22T02:17:53.427Z,99.90
2023-04-22T02:20:29.907Z,99.90
2023-04-22T02:23:05.745Z,99.90
2023-04-22T02:25:42.025Z,99.90
2023-04-22T02:28:21.513Z,99.90
2023-04-22T02:31:00.440Z,99.90
2023-04-22T02:33:35.117Z,99.90
2023-04-22T02:36:11.749Z,99.90
2023-04-22T02:38:52.454Z,99.90
2023-04-22T02:41:33.374Z,99.90
2023-04-22T02:44:19.127Z,99.90
2023-04-22T02:46:58.314Z,99.90
2023-04-22T02:49:40.050Z,99.90
2023-04-22T02:52:17.902Z,99.90
2023-04-22T02:54:53.667Z,99.90
2023-04-22T02:57:29.136Z,99.90
2023-04-22T03:00:10.353Z,99.90
2023-04-22T03:02:46.421Z,99.90
2023-04-22T03:05:24.352Z,99.90
2023-04-22T03:08:00.025Z,99.90
2023-04-22T03:10:36.178Z,99.90
2023-04-22T03:13:11.901Z,99.90
2023-04-22T03:15:52.841Z,99.90
2023-04-22T03:18:34.013Z,99.90
2023-04-22T03:21:09.735Z,99.90
2023-04-22T03:23:48.091Z,99.90
2023-04-22T03:26:26.444Z,99.90
2023-04-22T03:29:03.725Z,99.90
2023-04-22T03:31:43.292Z,99.90
2023-04-22T03:34:19.219Z,99.90
2023-04-22T03:36:57.139Z,99.90
2023-04-22T03:39:33.244Z,99.90
2023-04-22T03:42:08.751Z,99.90
2023-04-22T03:44:51.792Z,99.90
2023-04-22T03:47:32.234Z,99.90
2023-04-22T03:50:18.975Z,99.90
2023-04-22T03:52:56.401Z,99.90
2023-04-22T03:55:36.256Z,99.90
2023-04-22T03:58:11.868Z,99.90
2023-04-22T04:00:47.397Z,99.90
2023-04-22T04:03:30.168Z,99.90
2023-04-22T04:06:11.909Z,99.90
2023-04-22T04:08:48.821Z,99.90
2023-04-22T04:11:26.169Z,99.90
2023-04-22T04:14:03.780Z,99.90
2023-04-22T04:16:55.155Z,99.90
2023-04-22T04:19:36.924Z,99.90
2023-04-22T04:22:16.051Z,99.90
2023-04-22T04:25:03.026Z,99.90
2023-04-22T04:27:46.719Z,99.90
2023-04-22T04:30:31.054Z,99.90
2023-04-22T04:33:13.990Z,99.90
2023-04-22T04:35:56.276Z,99.90
2023-04-22T04:38:41.784Z,99.90
2023-04-22T04:41:21.745Z,99.90
2023-04-22T04:44:00.968Z,99.90
2023-04-22T04:46:43.684Z,99.90
2023-04-22T04:49:21.142Z,99.90
2023-04-22T04:52:03.922Z,99.90
2023-04-22T04:54:42.802Z,99.90
2023-04-22T04:57:19.285Z,99.90
2023-04-22T05:00:00.161Z,99.90
2023-04-22T05:02:39.334Z,99.90
2023-04-22T05:05:18.261Z,99.90
2023-04-22T05:07:54.423Z,99.90
2023-04-22T05:10:36.068Z,99.90
2023-04-22T05:13:13.348Z,99.90
2023-04-22T05:15:55.544Z,99.90
2023-04-22T05:18:34.675Z,99.90
2023-04-22T05:21:13.174Z,99.90
2023-04-22T05:23:51.094Z,99.90
2023-04-22T05:26:33.812Z,99.90
2023-04-22T05:29:15.141Z,99.90
2023-04-22T05:31:56.555Z,99.90
2023-04-22T05:34:34.704Z,99.90
2023-04-22T05:37:12.541Z,99.90
2023-04-22T05:40:14.020Z,99.90
2023-04-22T05:42:59.281Z,99.90
2023-04-22T05:45:39.842Z,99.90
2023-04-22T05:48:19.311Z,99.90
2023-04-22T05:51:10.397Z,99.90
2023-04-22T05:53:50.402Z,99.90
2023-04-22T05:56:28.904Z,99.90
2023-04-22T05:59:05.632Z,99.90
2023-04-22T06:01:47.407Z,99.90
2023-04-22T06:04:35.546Z,99.90
2023-04-22T06:07:16.506Z,99.90
2023-04-22T06:09:59.428Z,99.90
2023-04-22T06:12:47.059Z,99.90
2023-04-22T06:15:26.871Z,99.90
2023-04-22T06:18:07.212Z,99.90
2023-04-22T06:20:43.248Z,99.90
2023-04-22T06:23:24.243Z,99.90
2023-04-22T06:26:01.826Z,99.90
2023-04-22T06:28:44.258Z,99.90
2023-04-22T06:31:25.376Z,99.90
2023-04-22T06:34:07.677Z,99.90
2023-04-22T06:39:42.224Z,99.90
2023-04-22T06:42:40.557Z,99.90
2023-04-22T06:45:33.496Z,99.90
2023-04-22T06:48:38.031Z,99.90
2023-04-22T06:51:49.640Z,99.90
2023-04-22T06:54:39.327Z,99.90
2023-04-22T06:57:15.089Z,99.90
2023-04-22T06:59:57.362Z,99.90
2023-04-22T07:02:37.995Z,99.40
2023-04-22T07:05:26.264Z,99.70
2023-04-22T07:08:10.708Z,98.50
2023-04-22T07:10:52.476Z,96.80
2023-04-22T07:13:46.692Z,97.00
2023-04-22T07:19:28.235Z,96.50
2023-04-22T07:22:07.301Z,95.80
2023-04-22T07:24:48.958Z,95.80
2023-04-22T07:30:41.166Z,94.90
2023-04-22T07:33:27.821Z,95.10
2023-04-22T07:36:06.265Z,93.90
2023-04-22T07:38:50.614Z,93.90
2023-04-22T07:42:10.947Z,92.40
2023-04-22T07:45:34.324Z,91.10
2023-04-22T07:51:28.191Z,90.80
2023-04-22T07:54:40.642Z,89.30
2023-04-22T07:57:41.344Z,87.40
2023-04-22T08:03:34.223Z,88.00
2023-04-22T08:09:22.420Z,83.40
2023-04-22T08:12:20.560Z,82.60
2023-04-22T08:15:04.276Z,84.00
2023-04-22T08:17:52.478Z,83.90
2023-04-22T08:20:46.703Z,83.10
2023-04-22T08:38:08.796Z,79.40
2023-04-22T08:41:04.180Z,78.90
2023-04-22T08:43:52.183Z,75.30
2023-04-22T08:46:42.594Z,75.60
2023-04-22T08:52:15.968Z,75.40
2023-04-22T08:55:06.948Z,74.00
2023-04-22T09:00:39.920Z,74.30
2023-04-22T09:03:31.465Z,73.30
2023-04-22T09:06:16.528Z,72.10
2023-04-22T09:08:57.494Z,72.90
2023-04-22T09:11:36.768Z,72.90
2023-04-22T09:17:11.107Z,71.10
2023-04-22T09:19:45.278Z,69.30
2023-04-22T09:22:23.206Z,68.60
2023-04-22T09:25:02.830Z,68.80
2023-04-22T09:27:52.172Z,68.50
2023-04-22T09:33:27.475Z,66.30
2023-04-22T09:36:20.870Z,66.10
2023-04-22T09:39:11.560Z,67.80
2023-04-22T09:42:14.252Z,66.20
2023-04-22T09:44:58.991Z,65.40
2023-04-22T09:47:45.699Z,66.70
2023-04-22T09:50:24.937Z,67.40
2023-04-22T09:53:05.557Z,65.50
2023-04-22T09:55:45.358Z,64.40
2023-04-22T09:58:32.339Z,65.70
2023-04-22T10:01:09.880Z,64.50
2023-04-22T10:03:57.059Z,65.00
2023-04-22T10:06:41.849Z,65.40
2023-04-22T10:09:18.738Z,64.50
2023-04-22T10:11:59.774Z,65.50
2023-04-22T10:14:39.995Z,64.20
2023-04-22T10:17:22.322Z,64.60
2023-04-22T10:22:51.390Z,65.10
2023-04-22T10:25:26.365Z,65.60
2023-04-22T10:28:05.562Z,65.60
2023-04-22T10:30:45.306Z,66.10
2023-04-22T10:33:40.745Z,64.70
2023-04-22T10:36:16.131Z,66.40
2023-04-22T10:39:19.878Z,64.50
2023-04-22T10:42:01.081Z,65.40
2023-04-22T10:44:52.600Z,66.10
2023-04-22T10:47:26.770Z,63.50
2023-04-22T10:50:25.487Z,64.50
2023-04-22T10:53:05.485Z,63.20
2023-04-22T10:56:05.376Z,63.60
2023-04-22T10:58:53.210Z,63.10
2023-04-22T11:01:35.177Z,62.60
2023-04-22T11:04:26.893Z,62.70
2023-04-22T11:07:27.249Z,63.90
2023-04-22T11:10:20.077Z,63.20
2023-04-22T11:12:55.846Z,61.90
2023-04-22T11:15:35.107Z,63.20
2023-04-22T11:18:29.694Z,64.40
2023-04-22T11:21:08.400Z,62.80
2023-04-22T11:23:42.400Z,62.40
2023-04-22T11:26:30.988Z,62.50
2023-04-22T11:29:11.210Z,63.10
2023-04-22T11:31:52.452Z,62.70
2023-04-22T11:34:40.224Z,63.40
2023-04-22T11:37:18.870Z,63.40
2023-04-22T11:40:13.830Z,62.40
2023-04-22T11:42:54.610Z,62.00
2023-04-22T11:45:36.959Z,61.40
2023-04-22T11:48:12.235Z,61.70
2023-04-22T11:50:51.591Z,61.20
2023-04-22T11:53:44.967Z,61.10
2023-04-22T11:56:19.651Z,63.70
2023-04-22T11:59:06.213Z,63.80
2023-04-22T12:01:43.026Z,63.70
2023-04-22T12:04:21.394Z,62.00
2023-04-22T12:06:59.299Z,62.10
2023-04-22T12:09:38.133Z,64.20
2023-04-22T12:12:16.466Z,63.40
2023-04-22T12:15:03.014Z,64.10
2023-04-22T12:17:44.002Z,64.80
2023-04-22T12:20:25.073Z,64.50
2023-04-22T12:23:04.472Z,64.00
2023-04-22T12:25:40.753Z,61.80
2023-04-22T12:28:16.969Z,63.80
2023-04-22T12:30:59.705Z,64.80
2023-04-22T12:33:35.143Z,65.00
2023-04-22T12:36:15.831Z,66.90
2023-04-22T12:38:54.397Z,65.60
2023-04-22T12:41:36.394Z,64.50
2023-04-22T12:44:15.542Z,64.50
2023-04-22T12:47:04.326Z,63.40
2023-04-22T12:49:47.082Z,62.10
2023-04-22T12:52:26.192Z,62.70
2023-04-22T12:55:05.346Z,62.80
2023-04-22T12:57:43.113Z,63.40
2023-04-22T13:00:22.197Z,64.80
2023-04-22T13:03:08.043Z,66.60
2023-04-22T13:05:45.158Z,63.00
2023-04-22T13:08:29.190Z,61.40
2023-04-22T13:11:09.483Z,63.90
2023-04-22T13:13:58.350Z,64.10
2023-04-22T13:16:37.103Z,63.70
2023-04-22T13:19:17.580Z,63.50
2023-04-22T13:21:58.837Z,64.20
2023-04-22T13:24:36.855Z,62.90
2023-04-22T13:27:14.123Z,63.70
2023-04-22T13:29:50.006Z,64.70
2023-04-22T13:32:26.678Z,65.40
2023-04-22T13:35:09.008Z,64.50
2023-04-22T13:37:47.564Z,63.50
2023-04-22T13:40:27.320Z,63.10
2023-04-22T13:43:02.054Z,64.30
2023-04-22T13:45:45.182Z,65.20
2023-04-22T13:48:20.736Z,64.30
2023-04-22T13:51:01.731Z,65.20
2023-04-22T13:53:41.740Z,63.60
2023-04-22T13:56:20.642Z,62.20
2023-04-22T13:58:58.146Z,61.80
2023-04-22T14:01:39.905Z,61.30
2023-04-22T14:04:17.683Z,61.80
2023-04-22T14:07:01.487Z,62.20
2023-04-22T14:09:41.135Z,61.80
2023-04-22T14:12:19.361Z,63.30
2023-04-22T14:14:58.144Z,64.10
2023-04-22T14:17:36.503Z,64.80
2023-04-22T14:20:22.736Z,64.40
2023-04-22T14:23:07.643Z,63.50
2023-04-22T14:25:44.211Z,65.70
2023-04-22T14:28:21.598Z,65.20
2023-04-22T14:31:02.245Z,62.90
2023-04-22T14:33:36.422Z,64.00
2023-04-22T14:36:18.934Z,63.80
2023-04-22T14:39:00.642Z,64.10
2023-04-22T14:41:37.982Z,65.10
2023-04-22T14:44:16.906Z,64.80
2023-04-22T14:46:55.586Z,63.50
2023-04-22T14:49:38.201Z,63.10
2023-04-22T14:52:20.987Z,64.40
2023-04-22T14:55:15.558Z,65.70
2023-04-22T14:58:00.667Z,66.60
2023-04-22T15:00:37.341Z,64.70
2023-04-22T15:03:16.045Z,65.20
2023-04-22T15:05:56.778Z,64.50
2023-04-22T15:08:37.373Z,64.30
2023-04-22T15:11:16.644Z,64.40
2023-04-22T15:13:57.312Z,63.10
2023-04-22T15:16:34.174Z,63.30
2023-04-22T15:19:12.771Z,63.70
2023-04-22T15:21:49.680Z,62.80
2023-04-22T15:24:27.328Z,62.20
2023-04-22T15:27:09.181Z,62.60
2023-04-22T15:29:48.116Z,62.90
2023-04-22T15:32:25.128Z,63.70
2023-04-22T15:35:13.863Z,65.50
2023-04-22T15:37:48.403Z,65.20
2023-04-22T15:40:29.459Z,65.20
2023-04-22T15:43:13.701Z,65.20
2023-04-22T15:45:52.338Z,66.30
2023-04-22T15:48:29.159Z,66.00
2023-04-22T15:51:12.185Z,66.70
2023-04-22T15:53:48.240Z,67.30
2023-04-22T15:56:25.245Z,67.70
2023-04-22T15:59:06.446Z,68.50
2023-04-22T16:01:41.355Z,69.00
2023-04-22T16:04:24.979Z,67.90
2023-04-22T16:07:01.499Z,67.80
2023-04-22T16:09:37.846Z,66.80
2023-04-22T16:12:20.895Z,66.80
2023-04-22T16:14:56.821Z,66.70
2023-04-22T16:17:38.058Z,66.70
2023-04-22T16:20:19.218Z,67.60
2023-04-22T16:22:57.429Z,66.90
2023-04-22T16:25:33.987Z,67.10
2023-04-22T16:28:12.625Z,67.00
2023-04-22T16:30:49.534Z,67.50
2023-04-22T16:33:34.333Z,68.30
2023-04-22T16:36:10.700Z,69.40
2023-04-22T16:38:48.269Z,69.90
2023-04-22T16:41:26.713Z,69.10
2023-04-22T16:44:02.322Z,69.40
2023-04-22T16:46:37.898Z,70.30
2023-04-22T16:49:18.422Z,70.20
2023-04-22T16:51:54.768Z,70.90
2023-04-22T16:54:34.332Z,71.20
2023-04-22T16:57:17.717Z,71.50
2023-04-22T17:00:00.268Z,71.70
2023-04-22T17:02:36.514Z,71.20
2023-04-22T17:05:22.961Z,71.20
2023-04-22T17:08:03.648Z,71.40
2023-04-22T17:10:45.565Z,72.00
2023-04-22T17:13:25.884Z,72.20
2023-04-22T17:16:17.308Z,72.80
2023-04-22T17:18:54.562Z,72.90
2023-04-22T17:21:34.886Z,72.90
2023-04-22T17:24:16.656Z,72.70
2023-04-22T17:26:57.907Z,73.00
2023-04-22T17:29:36.522Z,73.00
2023-04-22T17:32:11.353Z,73.30
2023-04-22T17:34:50.660Z,73.70
2023-04-22T17:37:30.948Z,74.00
2023-04-22T17:40:08.997Z,74.30
2023-04-22T17:42:46.490Z,74.20
2023-04-22T17:45:24.943Z,74.10
2023-04-22T17:48:00.363Z,74.10
2023-04-22T17:50:35.956Z,74.10
2023-04-22T17:53:19.329Z,74.30
2023-04-22T17:55:54.250Z,74.40
2023-04-22T17:58:33.900Z,74.80
2023-04-22T18:01:10.270Z,74.50
2023-04-22T18:03:51.699Z,75.60
2023-04-22T18:06:29.630Z,75.60
2023-04-22T18:09:09.299Z,75.60
2023-04-22T18:11:46.836Z,76.20
2023-04-22T18:14:26.920Z,76.40
2023-04-22T18:17:04.590Z,76.70
2023-04-22T18:19:42.930Z,76.90
2023-04-22T18:22:17.715Z,76.90
2023-04-22T18:24:56.915Z,77.30
2023-04-22T18:27:32.420Z,77.60
2023-04-22T18:30:10.812Z,77.40
2023-04-22T18:32:46.248Z,77.80
2023-04-22T18:35:24.152Z,78.20
2023-04-22T18:38:02.458Z,78.00
2023-04-22T18:40:44.575Z,79.10
2023-04-22T18:43:20.621Z,78.30
2023-04-22T18:45:58.243Z,78.00
2023-04-22T18:48:35.843Z,78.30
2023-04-22T18:51:14.768Z,78.40
2023-04-22T18:53:57.179Z,79.10
2023-04-22T18:56:37.626Z,79.70
2023-04-22T18:59:14.586Z,80.00
2023-04-22T19:01:54.435Z,80.00
2023-04-22T19:04:31.671Z,80.40
2023-04-22T19:07:09.632Z,81.80
2023-04-22T19:09:48.274Z,83.20
2023-04-22T19:12:29.785Z,83.20
2023-04-22T19:15:09.166Z,82.60
2023-04-22T19:17:43.306Z,82.80
2023-04-22T19:20:19.114Z,83.10
2023-04-22T19:22:54.426Z,83.00
2023-04-22T19:25:30.763Z,83.50
2023-04-22T19:28:11.490Z,83.90
2023-04-22T19:30:47.620Z,84.90
2023-04-22T19:33:24.618Z,85.10
2023-04-22T19:36:01.200Z,85.30
2023-04-22T19:38:42.912Z,85.80
2023-04-22T19:41:17.975Z,86.40
2023-04-22T19:44:01.066Z,87.40
2023-04-22T19:46:41.033Z,88.90
2023-04-22T19:49:20.133Z,89.90
2023-04-22T19:51:57.984Z,90.20
2023-04-22T19:54:29.559Z,90.40
2023-04-22T19:57:09.131Z,91.00
2023-04-22T19:59:52.962Z,91.30
2023-04-22T20:02:33.953Z,91.70
2023-04-22T20:05:16.365Z,92.50
2023-04-22T20:07:59.899Z,93.00
2023-04-22T20:10:42.768Z,93.60
2023-04-22T20:13:23.201Z,95.00
2023-04-22T20:16:10.066Z,96.40
2023-04-22T20:18:48.984Z,99.40
2023-04-22T20:21:27.806Z,99.00
2023-04-22T20:24:12.480Z,99.60
2023-04-22T20:26:51.907Z,99.10
2023-04-22T20:29:30.647Z,99.30
2023-04-22T20:32:16.217Z,99.90
2023-04-22T20:34:55.326Z,99.90
2023-04-22T20:37:36.604Z,99.90
2023-04-22T20:40:19.603Z,99.90
2023-04-22T20:43:01.859Z,99.90
2023-04-22T20:45:39.559Z,99.90
2023-04-22T20:48:21.825Z,99.90
2023-04-22T20:50:58.010Z,99.90
2023-04-22T20:53:36.701Z,99.90
2023-04-22T20:56:16.618Z,99.90
2023-04-22T20:58:56.682Z,99.90
2023-04-22T21:01:35.199Z,99.90
2023-04-22T21:04:17.552Z,99.90
2023-04-22T21:06:53.934Z,99.90
2023-04-22T21:09:31.539Z,99.90
2023-04-22T21:12:09.079Z,99.90
2023-04-22T21:14:47.766Z,99.90
2023-04-22T21:17:24.405Z,99.90
2023-04-22T21:20:07.946Z,99.90
2023-04-22T21:22:45.448Z,99.90
2023-04-22T21:25:27.651Z,99.90
2023-04-22T21:28:09.356Z,99.90
2023-04-22T21:30:47.820Z,99.90
2023-04-22T21:33:21.300Z,99.90
2023-04-22T21:36:00.284Z,99.90
2023-04-22T21:38:38.806Z,99.90
2023-04-22T21:41:13.980Z,99.90
2023-04-22T21:43:50.474Z,99.90
2023-04-22T21:46:29.001Z,99.90
2023-04-22T21:49:06.680Z,99.90
2023-04-22T21:51:44.831Z,99.90
2023-04-22T21:54:20.949Z,99.90
2023-04-22T21:56:58.998Z,99.90
2023-04-22T21:59:34.642Z,99.90
2023-04-22T22:02:12.517Z,99.90
2023-04-22T22:04:56.198Z,99.90
2023-04-22T22:07:38.871Z,99.90
2023-04-22T22:10:15.040Z,99.90
2023-04-22T22:12:51.531Z,99.90
2023-04-22T22:15:28.346Z,99.90
2023-04-22T22:18:12.271Z,99.90
2023-04-22T22:20:49.309Z,99.90
2023-04-22T22:23:29.833Z,99.90
2023-04-22T22:26:08.631Z,99.90
2023-04-22T22:28:44.175Z,99.90
2023-04-22T22:31:20.662Z,99.90
2023-04-22T22:33:57.770Z,99.90
2023-04-22T22:36:36.619Z,99.90
2023-04-22T22:39:16.711Z,99.90
2023-04-22T22:41:52.567Z,99.90
2023-04-22T22:44:27.946Z,99.90
2023-04-22T22:47:06.522Z,99.90
2023-04-22T22:49:45.274Z,99.90
2023-04-22T22:52:21.937Z,99.90
2023-04-22T22:55:04.254Z,99.90
2023-04-22T22:57:41.285Z,99.90
2023-04-22T23:00:18.977Z,99.90
2023-04-22T23:02:57.364Z,99.90
2023-04-22T23:05:35.210Z,99.90
2023-04-22T23:08:11.315Z,99.90
2023-04-22T23:10:50.757Z,99.90
2023-04-22T23:13:26.346Z,99.90
2023-04-22T23:16:08.102Z,99.90
2023-04-22T23:18:44.730Z,99.90
2023-04-22T23:21:21.276Z,99.90
2023-04-22T23:24:02.065Z,99.90
2023-04-22T23:26:46.301Z,99.90
2023-04-22T23:29:21.841Z,99.90
2023-04-22T23:31:58.069Z,99.90
2023-04-22T23:34:37.149Z,99.90
2023-04-22T23:37:13.953Z,99.90
2023-04-22T23:39:52.472Z,99.90
2023-04-22T23:42:33.253Z,99.90
2023-04-22T23:45:13.649Z,99.90
2023-04-22T23:50:23.148Z,99.90
2023-04-22T23:52:59.297Z,99.90
2023-04-22T23:55:34.981Z,99.90
2023-04-22T23:58:14.801Z,99.90
